Time;durP1;ratioP1;P1;durP2;ratioP2;P2;SDS_P1;SDS_P2;PMS_P1;PMS_P2;Temp;Humidity;BMP_temperature;BMP_pressure;BME280_temperature;BME280_humidity;BME280_pressure;Samples;Min_cycle;Max_cycle;Signal;HPM_P1;HPM_P2
2021/09/03 00:01:30;;;;;;;8.10;3.53;;;;;;;20.79;81.13;101728.22;4882235;29;20030;-65
2021/09/03 00:04:16;;;;;;;6.90;3.40;;;;;;;20.48;81.83;101730.44;4881841;29;20120;-65
2021/09/03 00:07:02;;;;;;;8.65;3.83;;;;;;;20.47;82.35;101731.38;4882388;29;20060;-65
2021/09/03 00:09:48;;;;;;;6.30;3.70;;;;;;;20.71;80.61;101725.91;4881965;29;20033;-65
2021/09/03 00:12:34;;;;;;;6.95;3.47;;;;;;;20.78;79.93;101732.66;4881371;29;20108;-65
2021/09/03 00:15:20;;;;;;;7.45;3.88;;;;;;;20.47;82.06;101737.59;4881407;29;20426;-66
2021/09/03 00:18:06;;;;;;;5.93;3.25;;;;;;;20.97;78.36;101722.13;4881178;29;20037;-66
2021/09/03 00:20:52;;;;;;;5.65;3.72;;;;;;;21.04;76.45;101721.78;4881229;29;20051;-66
2021/09/03 00:24:33;;;;;;;6.45;3.60;;;;;;;20.74;78.04;101730.22;4881113;29;20429;-66
2021/09/03 00:27:19;;;;;;;8.02;3.92;;;;;;;20.49;81.35;101725.06;4868020;29;20029;-66
2021/09/03 00:30:06;;;;;;;7.38;4.03;;;;;;;20.85;78.42;101734.13;4882499;29;20040;-66
2021/09/03 00:32:51;;;;;;;5.22;3.60;;;;;;;20.67;79.12;101726.97;4882443;29;20025;-66
2021/09/03 00:35:39;;;;;;;5.45;3.50;;;;;;;20.60;79.67;101725.47;4882406;29;20144;-66
2021/09/03 00:38:25;;;;;;;7.55;3.47;;;;;;;20.56;79.67;101726.53;4882682;29;20033;-65
2021/09/03 00:41:11;;;;;;;7.60;3.83;;;;;;;20.74;79.44;101731.06;4882533;29;20035;-66
2021/09/03 00:43:57;;;;;;;7.00;3.38;;;;;;;20.87;77.59;101732.28;4868057;29;20028;-66
2021/09/03 00:46:42;;;;;;;6.78;3.60;;;;;;;20.88;76.60;101728.69;4880705;29;20351;-66
2021/09/03 00:49:28;;;;;;;9.15;4.00;;;;;;;20.43;80.52;101727.13;4881387;29;20025;-66
2021/09/03 00:58:32;;;;;;;7.38;3.88;;;;;;;20.73;78.34;101748.00;5351986;23;20143;-67
2021/09/03 01:01:20;;;;;;;8.25;3.90;;;;;;;20.37;81.02;101738.88;4905805;29;20028;-67
2021/09/03 01:04:06;;;;;;;5.65;3.88;;;;;;;20.47;80.44;101734.03;4905962;29;20032;-68
2021/09/03 01:06:52;;;;;;;8.60;4.10;;;;;;;20.42;81.71;101734.25;4904411;29;20036;-67
2021/09/03 01:09:38;;;;;;;6.82;4.18;;;;;;;20.76;79.52;101736.34;4899912;29;20036;-67
2021/09/03 01:12:23;;;;;;;5.72;4.10;;;;;;;20.62;79.53;101726.25;4899498;29;20362;-67
2021/09/03 01:15:09;;;;;;;5.65;3.90;;;;;;;20.77;79.11;101732.75;4900383;29;20327;-67
2021/09/03 01:24:42;;;;;;;10.23;4.10;;;;;;;20.47;81.04;101731.38;5635457;23;20118;-67
2021/09/03 01:27:28;;;;;;;6.10;4.18;;;;;;;20.34;79.93;101723.06;4881713;29;20033;-67
2021/09/03 01:30:15;;;;;;;7.50;4.40;;;;;;;19.91;82.60;101728.34;4881332;29;20123;-67
2021/09/03 01:33:01;;;;;;;7.22;4.18;;;;;;;20.07;82.39;101728.59;4880881;29;20100;-67
2021/09/03 01:35:47;;;;;;;5.15;3.80;;;;;;;19.95;81.90;101732.63;4880928;29;20383;-67
2021/09/03 01:38:33;;;;;;;7.10;4.00;;;;;;;20.26;81.28;101727.84;4867470;29;20092;-67
2021/09/03 01:41:19;;;;;;;5.75;4.00;;;;;;;20.22;80.64;101746.66;4865238;29;20041;-67
2021/09/03 01:44:04;;;;;;;6.80;3.70;;;;;;;20.59;77.91;101741.53;4881770;29;20056;-67
2021/09/03 01:46:50;;;;;;;8.73;4.20;;;;;;;20.44;78.02;101736.84;4880460;29;20041;-67
2021/09/03 01:49:36;;;;;;;6.55;3.97;;;;;;;20.50;76.93;101741.91;4881379;29;20052;-67
2021/09/03 01:52:22;;;;;;;6.07;3.90;;;;;;;20.15;79.53;101738.06;4867168;29;20025;-67
2021/09/03 01:55:08;;;;;;;9.30;3.92;;;;;;;20.28;79.22;101741.94;4881191;29;20332;-67
2021/09/03 01:57:54;;;;;;;5.82;3.88;;;;;;;20.29;80.00;101735.66;4881263;29;20112;-68
2021/09/03 02:00:40;;;;;;;7.50;3.85;;;;;;;20.48;78.29;101730.44;4879825;29;20072;-67
2021/09/03 02:03:26;;;;;;;7.00;4.13;;;;;;;20.50;77.46;101742.78;4880232;29;20044;-67
2021/09/03 02:11:22;;;;;;;6.97;3.78;;;;;;;20.59;77.65;101738.84;5333830;23;20048;-67
2021/09/03 02:14:08;;;;;;;5.97;3.92;;;;;;;20.33;78.82;101747.94;4900088;29;20127;-68
2021/09/03 02:16:53;;;;;;;6.10;3.83;;;;;;;20.63;76.82;101751.13;4884978;29;20477;-68
2021/09/03 02:19:39;;;;;;;5.30;3.70;;;;;;;20.62;77.04;101754.72;4880058;29;20033;-67
2021/09/03 02:22:25;;;;;;;10.05;4.30;;;;;;;20.43;77.39;101754.63;4883423;29;20029;-67
2021/09/03 02:25:11;;;;;;;7.63;3.63;;;;;;;19.78;80.26;101759.03;4883446;29;20029;-67
2021/09/03 02:27:57;;;;;;;6.30;3.78;;;;;;;19.82;80.95;101750.00;4883297;29;20084;-67
2021/09/03 02:30:43;;;;;;;6.50;3.72;;;;;;;19.78;80.70;101753.72;4883165;29;20107;-67
2021/09/03 02:33:29;;;;;;;4.97;3.90;;;;;;;19.80;80.11;101743.88;4883476;29;20029;-67
2021/09/03 02:36:14;;;;;;;5.15;3.80;;;;;;;19.88;79.79;101752.41;4882937;29;20108;-67
2021/09/03 02:39:00;;;;;;;8.40;3.63;;;;;;;20.03;77.18;101751.81;4883352;29;20047;-66
2021/09/03 02:41:46;;;;;;;5.82;3.97;;;;;;;20.10;76.43;101748.03;4882742;29;20047;-67
2021/09/03 02:44:32;;;;;;;5.18;3.50;;;;;;;19.54;78.45;101749.34;4883636;29;20091;-67
2021/09/03 02:47:18;;;;;;;5.03;3.58;;;;;;;19.71;78.87;101748.66;4883285;29;20032;-67
2021/09/03 02:50:05;;;;;;;6.28;3.88;;;;;;;19.73;77.48;101755.66;4883728;29;20451;-67
2021/09/03 02:52:52;;;;;;;5.68;3.53;;;;;;;19.79;78.09;101749.25;4883377;29;20051;-67
2021/09/03 02:55:38;;;;;;;5.80;3.55;;;;;;;19.87;77.08;101749.81;4883267;29;20480;-67
2021/09/03 02:58:24;;;;;;;6.25;3.53;;;;;;;19.97;76.54;101753.84;4882698;29;20043;-67
2021/09/03 03:01:11;;;;;;;7.03;4.20;;;;;;;19.55;79.34;101761.69;4882900;29;20088;-67
2021/09/03 03:03:56;;;;;;;9.15;4.05;;;;;;;19.71;78.04;101759.31;4869683;29;20446;-68
2021/09/03 03:06:42;;;;;;;8.00;4.00;;;;;;;19.77;77.92;101762.59;4884346;29;20041;-67
2021/09/03 03:09:28;;;;;;;7.30;3.58;;;;;;;19.83;77.61;101761.50;4882779;29;20039;-67
2021/09/03 03:12:15;;;;;;;6.15;3.70;;;;;;;19.59;78.94;101768.63;4882315;29;20352;-67
2021/09/03 03:15:01;;;;;;;7.72;3.80;;;;;;;19.68;77.67;101773.59;4884551;29;20044;-68
2021/09/03 03:17:47;;;;;;;5.80;3.72;;;;;;;19.58;78.15;101766.91;4883808;29;20048;-67
2021/09/03 03:20:33;;;;;;;7.30;3.72;;;;;;;19.75;78.18;101761.81;4883319;29;20041;-67
2021/09/03 03:23:19;;;;;;;6.90;3.60;;;;;;;19.49;80.54;101761.06;4882384;29;20033;-67
2021/09/03 03:26:04;;;;;;;4.70;3.20;;;;;;;19.19;81.78;101758.59;4869290;29;20039;-67
2021/09/03 03:28:50;;;;;;;8.13;3.95;;;;;;;19.07;84.04;101751.06;4883839;29;20111;-67
2021/09/03 03:37:53;;;;;;;7.60;3.60;;;;;;;18.93;84.57;101750.66;5392431;23;20077;-67
2021/09/03 03:40:39;;;;;;;7.35;3.63;;;;;;;19.04;84.12;101755.59;4901779;29;20135;-67
2021/09/03 03:43:25;;;;;;;8.23;3.60;;;;;;;19.08;82.06;101757.22;4901744;29;20037;-67
2021/09/03 03:46:10;;;;;;;6.15;3.47;;;;;;;19.02;82.71;101757.44;4893546;29;20056;-67
2021/09/03 03:48:56;;;;;;;4.95;2.90;;;;;;;18.90;82.68;101758.72;4882082;29;20044;-67
2021/09/03 03:51:42;;;;;;;8.32;3.65;;;;;;;18.89;83.48;101767.63;4882336;29;20037;-67
2021/09/03 03:54:28;;;;;;;5.80;3.60;;;;;;;19.07;81.13;101767.00;4881832;29;20439;-67
2021/09/03 04:09:34;;;;;;;7.90;3.30;;;;;;;19.18;81.44;101786.06;5087522;23;20056;-67
2021/09/03 04:12:20;;;;;;;4.45;3.30;;;;;;;19.01;82.32;101787.59;4901215;29;20112;-67
2021/09/03 04:15:06;;;;;;;7.85;3.53;;;;;;;18.79;84.10;101786.59;4886802;29;20406;-67
2021/09/03 04:17:52;;;;;;;7.43;3.60;;;;;;;18.91;83.54;101783.50;4881164;29;20067;-67
2021/09/03 04:20:38;;;;;;;6.93;3.53;;;;;;;19.20;81.14;101788.66;4881400;29;20121;-67
2021/09/03 04:23:24;;;;;;;7.53;3.60;;;;;;;19.35;79.57;101793.47;4881069;29;20039;-67
2021/09/03 04:26:10;;;;;;;5.00;3.40;;;;;;;19.60;78.89;101781.00;4881291;29;20025;-67
2021/09/03 04:28:56;;;;;;;6.97;3.80;;;;;;;19.31;80.36;101785.63;4881088;29;20115;-67
2021/09/03 04:31:42;;;;;;;8.38;3.63;;;;;;;19.42;79.08;101784.34;4869134;29;20039;-67
2021/09/03 04:34:27;;;;;;;8.07;3.90;;;;;;;19.69;78.32;101788.59;4867877;29;20502;-67
2021/09/03 04:37:13;;;;;;;6.15;3.60;;;;;;;19.53;78.24;101782.13;4882503;29;20116;-67
2021/09/03 04:39:59;;;;;;;9.93;3.80;;;;;;;18.96;84.18;101778.91;4881216;29;20049;-67
2021/09/03 04:42:45;;;;;;;5.50;3.42;;;;;;;19.59;79.31;101783.69;4881735;29;20021;-68
2021/09/03 04:45:31;;;;;;;7.22;3.70;;;;;;;19.84;77.41;101761.44;4881017;29;20029;-67
2021/09/03 04:48:17;;;;;;;9.32;3.75;;;;;;;19.61;77.87;101780.06;4868746;29;20029;-67
2021/09/03 04:51:02;;;;;;;9.48;4.00;;;;;;;19.47;78.79;101777.06;4881736;29;20482;-67
2021/09/03 04:53:48;;;;;;;5.93;3.83;;;;;;;19.33;77.64;101784.66;4880610;29;20036;-68
2021/09/03 04:56:35;;;;;;;9.55;3.92;;;;;;;19.22;80.11;101792.13;4882186;29;20093;-68
2021/09/03 04:59:21;;;;;;;7.85;3.58;;;;;;;19.03;79.03;101788.41;4880504;29;20189;-67
2021/09/03 05:02:06;;;;;;;11.48;3.70;;;;;;;19.34;79.09;101793.50;4881173;29;20197;-67
2021/09/03 05:04:55;;;;;;;6.55;3.50;;;;;;;19.84;74.39;101792.50;4881080;29;20056;-67
2021/09/03 05:07:41;;;;;;;7.47;3.67;;;;;;;19.67;74.62;101798.44;4880584;29;20037;-67
2021/09/03 05:16:34;;;;;;;5.23;3.30;;;;;;;19.56;72.41;101797.13;5896860;23;20027;-67
2021/09/03 05:19:20;;;;;;;6.90;3.70;;;;;;;20.13;70.32;101795.78;4918168;29;20044;-67
2021/09/03 05:22:05;;;;;;;6.18;3.60;;;;;;;19.92;69.81;101796.59;4918240;29;20028;-67
2021/09/03 05:24:51;;;;;;;7.78;3.58;;;;;;;20.06;68.49;101790.72;4918050;29;20393;-67
2021/09/03 05:27:37;;;;;;;6.05;3.42;;;;;;;19.90;68.23;101785.16;4900398;29;20029;-68
2021/09/03 05:30:23;;;;;;;5.63;3.30;;;;;;;19.78;67.92;101793.59;4898642;29;20360;-68
2021/09/03 05:33:10;;;;;;;4.40;2.92;;;;;;;19.99;65.74;101795.44;4886266;29;20057;-67
2021/09/03 05:35:55;;;;;;;6.28;3.20;;;;;;;20.09;66.13;101796.81;4899539;29;20056;-67
2021/09/03 05:38:41;;;;;;;4.38;3.00;;;;;;;19.92;66.27;101787.72;4900193;29;20075;-67
2021/09/03 05:41:27;;;;;;;7.82;3.00;;;;;;;20.15;65.99;101785.94;4899044;29;20423;-68
2021/09/03 05:44:13;;;;;;;6.82;3.30;;;;;;;20.36;64.97;101790.41;4899114;29;20052;-68
2021/09/03 05:46:58;;;;;;;7.72;3.47;;;;;;;20.27;65.58;101795.22;4899294;29;20475;-68
2021/09/03 05:49:44;;;;;;;6.28;3.22;;;;;;;20.16;64.53;101793.00;4899649;29;20141;-68
2021/09/03 05:52:30;;;;;;;11.25;3.40;;;;;;;20.11;65.47;101788.78;4898673;29;20021;-67
2021/09/03 05:55:15;;;;;;;5.82;3.20;;;;;;;20.13;64.42;101787.78;4900258;29;20132;-68
2021/09/03 05:58:01;;;;;;;5.10;3.70;;;;;;;20.29;64.11;101801.38;4889635;29;20454;-68
2021/09/03 06:00:47;;;;;;;6.93;3.22;;;;;;;20.43;63.41;101805.22;4903445;29;20044;-67
2021/09/03 06:03:33;;;;;;;4.80;3.20;;;;;;;20.37;64.37;101810.75;4902949;29;20028;-68
2021/09/03 06:06:18;;;;;;;6.45;3.40;;;;;;;20.71;62.59;101810.25;4902663;29;20469;-68
2021/09/03 06:09:04;;;;;;;7.75;3.42;;;;;;;20.98;61.37;101809.97;4902896;29;20405;-68
2021/09/03 06:11:52;;;;;;;4.75;3.05;;;;;;;20.76;61.27;101809.13;4902523;29;20029;-67
2021/09/03 06:14:38;;;;;;;7.50;3.38;;;;;;;20.96;60.34;101808.31;4903376;29;20100;-68
2021/09/03 06:17:24;;;;;;;5.40;3.08;;;;;;;20.82;60.95;101808.84;4888477;29;20064;-68
2021/09/03 06:23:51;;;;;;;9.02;3.08;;;;;;;21.00;56.42;101808.13;4902424;29;20040;-68
2021/09/03 06:26:37;;;;;;;8.23;3.20;;;;;;;21.20;55.67;101813.44;4888828;29;20048;-68
2021/09/03 06:32:27;;;;;;;5.85;3.50;;;;;;;20.78;55.90;101819.72;4904375;29;20353;-66
2021/09/03 06:35:13;;;;;;;6.15;3.10;;;;;;;21.10;55.31;101816.59;4901926;29;20037;-68
2021/09/03 06:37:58;;;;;;;5.22;3.05;;;;;;;20.72;54.52;101815.53;4901719;29;20487;-67
2021/09/03 06:40:44;;;;;;;7.53;2.90;;;;;;;20.43;55.21;101820.31;4902219;29;20176;-68
2021/09/03 06:43:46;;;;;;;5.45;2.83;;;;;;;20.63;53.66;101826.56;4902703;29;20036;-68
2021/09/03 06:46:44;;;;;;;4.85;2.80;;;;;;;20.92;54.13;101817.38;4977819;23;20052;-67
2021/09/03 06:49:47;;;;;;;4.60;3.08;;;;;;;20.70;55.08;101830.69;4903297;29;20119;-67
2021/09/03 06:52:33;;;;;;;7.53;4.85;;;;;;;21.37;54.23;101818.91;4903280;29;20111;-66
2021/09/03 06:55:19;;;;;;;9.43;3.97;;;;;;;21.58;53.98;101817.94;4899726;29;20056;-66
2021/09/03 06:58:08;;;;;;;5.05;3.13;;;;;;;21.51;53.69;101815.63;4883690;29;20033;-67
2021/09/03 07:00:53;;;;;;;7.13;3.58;;;;;;;21.38;53.09;101825.97;4883367;29;20029;-68
2021/09/03 07:04:08;;;;;;;6.85;3.47;;;;;;;21.55;51.97;101820.75;4884758;29;20039;-69
2021/09/03 07:06:54;;;;;;;6.97;3.10;;;;;;;21.22;53.32;101830.22;5109444;23;20130;-68
2021/09/03 07:09:39;;;;;;;6.00;2.92;;;;;;;21.24;52.95;101839.03;4902616;29;20366;-66
2021/09/03 07:12:25;;;;;;;6.22;3.20;;;;;;;21.47;52.83;101843.38;4888555;29;20029;-67
2021/09/03 07:15:11;;;;;;;6.32;2.83;;;;;;;21.04;53.11;101841.72;4894476;23;20040;-65
2021/09/03 07:18:00;;;;;;;9.80;4.15;;;;;;;21.03;53.27;101839.97;4882944;29;20045;-68
2021/09/03 07:20:51;;;;;;;3.92;2.97;;;;;;;21.34;52.75;101836.84;4883383;29;20033;-66
2021/09/03 07:23:37;;;;;;;5.85;2.85;;;;;;;21.25;52.75;101829.22;4882662;29;20037;-68
2021/09/03 07:26:23;;;;;;;7.07;3.40;;;;;;;21.31;52.32;101832.53;4873525;29;20423;-68
2021/09/03 07:29:09;;;;;;;9.50;3.13;;;;;;;21.59;51.33;101835.69;4864773;29;20117;-68
2021/09/03 07:31:54;;;;;;;5.50;3.28;;;;;;;21.52;50.65;101839.56;4864917;29;20038;-68
2021/09/03 07:34:40;;;;;;;5.68;2.65;;;;;;;21.75;49.39;101835.88;4863745;29;20033;-68
2021/09/03 07:37:26;;;;;;;5.20;2.65;;;;;;;21.67;49.51;101822.88;4851046;29;20057;-67
2021/09/03 07:40:12;;;;;;;7.30;2.50;;;;;;;21.53;49.68;101835.94;4865053;29;20029;-67
2021/09/03 07:43:05;;;;;;;5.22;2.70;;;;;;;21.97;48.57;101823.25;4864783;29;20030;-68
2021/09/03 07:45:52;;;;;;;5.18;2.63;;;;;;;21.91;49.65;101828.91;4850571;29;20029;-68
2021/09/03 07:52:19;;;;;;;4.43;2.85;;;;;;;22.46;48.19;101836.91;4865079;29;20141;-68
2021/09/03 07:55:06;;;;;;;4.30;2.70;;;;;;;22.83;47.56;101826.13;4863397;29;20041;-68
2021/09/03 07:57:51;;;;;;;4.68;2.50;;;;;;;22.21;47.63;101831.00;4864528;29;20045;-68
2021/09/03 08:00:38;;;;;;;3.88;2.78;;;;;;;22.66;47.04;101836.78;4849968;29;20048;-68
2021/09/03 08:03:24;;;;;;;4.57;2.88;;;;;;;23.01;47.38;101825.22;4863316;29;20455;-68
2021/09/03 08:06:09;;;;;;;7.50;3.22;;;;;;;23.15;46.12;101813.81;4864500;29;20029;-68
2021/09/03 08:08:55;;;;;;;4.82;3.00;;;;;;;22.76;46.73;101814.03;4865063;29;20044;-68
2021/09/03 12:04:10;;;;;;;5.30;2.72;;;;;;;27.73;36.28;101560.69;5374705;23;20049;-68
2021/09/03 12:06:55;;;;;;;6.30;2.72;;;;;;;27.68;36.98;101555.63;4886311;29;20032;-68
2021/09/03 12:09:43;;;;;;;5.40;2.50;;;;;;;27.61;37.07;101561.59;4868995;29;20542;-68
2021/09/03 12:12:29;;;;;;;3.40;2.47;;;;;;;27.86;34.81;101554.28;4868267;29;20029;-68
2021/09/03 12:15:19;;;;;;;4.38;2.58;;;;;;;27.86;34.84;101548.91;4882151;29;20029;-68
2021/09/03 12:18:28;;;;;;;5.10;2.75;;;;;;;28.17;34.56;101537.50;4882911;29;20075;-68
2021/09/03 12:21:20;;;;;;;4.85;2.30;;;;;;;27.68;34.90;101536.78;4881293;29;20192;-68
2021/09/03 13:24:00;;;;;;;4.65;2.72;;;;;;;27.48;35.57;101462.03;5433001;23;20139;-68
2021/09/03 13:26:47;;;;;;;5.32;3.20;;;;;;;27.38;35.99;101455.63;4886540;29;20052;-68
2021/09/03 13:29:32;;;;;;;3.45;2.80;;;;;;;26.71;37.09;101453.50;4881905;29;20044;-68
2021/09/03 13:32:18;;;;;;;4.90;2.70;;;;;;;26.55;37.06;101453.72;4880203;29;20029;-68
2021/09/03 13:35:04;;;;;;;4.20;3.28;;;;;;;26.97;37.80;101453.28;4866938;29;20040;-68
2021/09/03 13:37:50;;;;;;;7.43;2.97;;;;;;;26.56;37.86;101450.06;4880384;29;20068;-68
2021/09/03 13:40:36;;;;;;;3.63;2.83;;;;;;;26.80;37.66;101442.94;4880324;29;20475;-68
2021/09/03 17:13:16;;;;;;;9.15;4.05;;;;;;;24.64;46.08;101297.16;4879759;29;20052;-67
2021/09/03 17:16:02;;;;;;;8.20;4.00;;;;;;;24.90;46.10;101304.31;4880524;29;20355;-67
2021/09/03 17:18:47;;;;;;;7.45;4.68;;;;;;;24.54;47.10;101297.81;4880980;29;20025;-68
2021/09/03 17:21:33;;;;;;;7.13;4.00;;;;;;;24.55;47.38;101305.75;4881942;29;20065;-67
2021/09/03 17:24:19;;;;;;;6.63;4.28;;;;;;;24.25;48.01;101312.25;4881231;29;20033;-68
2021/09/03 17:27:05;;;;;;;7.15;4.30;;;;;;;24.15;48.63;101313.81;4867286;29;20033;-67
2021/09/03 17:29:52;;;;;;;10.85;4.50;;;;;;;24.61;47.84;101315.25;4881324;29;20113;-67
2021/09/03 23:29:19;;;;;;;11.50;6.15;;;;;;;19.67;100.00;101247.19;5430718;23;20064;-65
2021/09/03 23:32:05;;;;;;;10.10;6.20;;;;;;;19.94;100.00;101246.78;4901210;29;20047;-66
2021/09/03 23:34:51;;;;;;;9.88;6.10;;;;;;;19.83;100.00;101246.41;4901908;29;20032;-66
2021/09/03 23:37:37;;;;;;;9.25;5.80;;;;;;;19.63;100.00;101248.25;4883549;29;20036;-66
2021/09/03 23:40:22;;;;;;;8.45;5.30;;;;;;;19.83;100.00;101250.84;4883171;29;20116;-66
2021/09/03 23:43:08;;;;;;;10.45;5.20;;;;;;;19.83;100.00;101248.19;4870337;29;20107;-66
2021/09/03 23:45:54;;;;;;;8.63;5.70;;;;;;;19.71;100.00;101259.41;4881485;29;20339;-66
2021/09/03 23:48:40;;;;;;;7.85;4.90;;;;;;;19.29;100.00;101262.19;4881704;29;20477;-66
